sensor_id;sensor_type;location;lat;lon;timestamp;P1;durP1;ratioP1;P2;durP2;ratioP2
61899;SDS011;47853;55.890;37.664;2022-11-20T00:01:43;20.58;;;11.30;;
61899;SDS011;47853;55.890;37.664;2022-11-20T00:04:10;14.32;;;9.50;;
61899;SDS011;47853;55.890;37.664;2022-11-20T00:06:38;16.13;;;9.82;;
61899;SDS011;47853;55.890;37.664;2022-11-20T00:09:04;17.55;;;9.40;;
61899;SDS011;47853;55.890;37.664;2022-11-20T00:11:32;18.08;;;9.40;;
61899;SDS011;47853;55.890;37.664;2022-11-20T00:13:59;16.13;;;9.90;;
61899;SDS011;47853;55.890;37.664;2022-11-20T00:16:27;16.33;;;9.63;;
61899;SDS011;47853;55.890;37.664;2022-11-20T00:18:53;17.65;;;9.80;;
61899;SDS011;47853;55.890;37.664;2022-11-20T00:21:23;18.98;;;10.55;;
61899;SDS011;47853;55.890;37.664;2022-11-20T00:23:50;20.10;;;11.30;;
61899;SDS011;47853;55.890;37.664;2022-11-20T00:26:18;16.23;;;9.73;;
61899;SDS011;47853;55.890;37.664;2022-11-20T00:28:49;16.95;;;10.00;;
61899;SDS011;47853;55.890;37.664;2022-11-20T00:31:15;14.77;;;8.82;;
61899;SDS011;47853;55.890;37.664;2022-11-20T00:33:44;17.70;;;10.50;;
61899;SDS011;47853;55.890;37.664;2022-11-20T00:36:11;16.40;;;10.05;;
61899;SDS011;47853;55.890;37.664;2022-11-20T00:38:38;16.10;;;9.90;;
61899;SDS011;47853;55.890;37.664;2022-11-20T00:41:04;18.65;;;10.75;;
61899;SDS011;47853;55.890;37.664;2022-11-20T00:43:31;17.02;;;10.00;;
61899;SDS011;47853;55.890;37.664;2022-11-20T00:48:26;18.65;;;9.68;;
61899;SDS011;47853;55.890;37.664;2022-11-20T00:50:52;16.98;;;10.88;;
61899;SDS011;47853;55.890;37.664;2022-11-20T00:53:18;18.52;;;9.90;;
61899;SDS011;47853;55.890;37.664;2022-11-20T00:55:57;14.35;;;9.68;;
61899;SDS011;47853;55.890;37.664;2022-11-20T00:58:27;21.05;;;10.68;;
61899;SDS011;47853;55.890;37.664;2022-11-20T01:00:59;19.30;;;9.82;;
61899;SDS011;47853;55.890;37.664;2022-11-20T01:03:32;19.75;;;11.38;;
61899;SDS011;47853;55.890;37.664;2022-11-20T01:06:03;17.75;;;10.25;;
61899;SDS011;47853;55.890;37.664;2022-11-20T01:08:34;17.45;;;9.20;;
61899;SDS011;47853;55.890;37.664;2022-11-20T01:11:01;16.73;;;10.27;;
61899;SDS011;47853;55.890;37.664;2022-11-20T01:13:31;18.73;;;9.60;;
61899;SDS011;47853;55.890;37.664;2022-11-20T01:16:01;21.15;;;10.13;;
61899;SDS011;47853;55.890;37.664;2022-11-20T01:21:00;14.13;;;9.30;;
61899;SDS011;47853;55.890;37.664;2022-11-20T01:23:33;16.70;;;9.75;;
61899;SDS011;47853;55.890;37.664;2022-11-20T01:26:03;16.95;;;9.77;;
61899;SDS011;47853;55.890;37.664;2022-11-20T01:28:31;17.35;;;8.98;;
61899;SDS011;47853;55.890;37.664;2022-11-20T01:30:57;14.50;;;8.98;;
61899;SDS011;47853;55.890;37.664;2022-11-20T01:33:22;14.77;;;8.75;;
61899;SDS011;47853;55.890;37.664;2022-11-20T01:35:48;14.52;;;9.02;;
61899;SDS011;47853;55.890;37.664;2022-11-20T01:38:14;17.33;;;9.98;;
61899;SDS011;47853;55.890;37.664;2022-11-20T01:40:40;15.18;;;8.68;;
61899;SDS011;47853;55.890;37.664;2022-11-20T01:43:24;19.00;;;8.93;;
61899;SDS011;47853;55.890;37.664;2022-11-20T01:48:18;12.80;;;7.72;;
61899;SDS011;47853;55.890;37.664;2022-11-20T01:50:47;18.27;;;9.02;;
61899;SDS011;47853;55.890;37.664;2022-11-20T01:53:14;16.80;;;9.00;;
61899;SDS011;47853;55.890;37.664;2022-11-20T01:55:53;16.60;;;8.98;;
61899;SDS011;47853;55.890;37.664;2022-11-20T01:58:22;14.98;;;8.38;;
61899;SDS011;47853;55.890;37.664;2022-11-20T02:00:52;13.35;;;9.25;;
61899;SDS011;47853;55.890;37.664;2022-11-20T02:03:18;14.52;;;8.48;;
61899;SDS011;47853;55.890;37.664;2022-11-20T02:05:45;14.30;;;8.40;;
61899;SDS011;47853;55.890;37.664;2022-11-20T02:08:17;13.93;;;8.18;;
61899;SDS011;47853;55.890;37.664;2022-11-20T02:10:44;14.20;;;8.10;;
61899;SDS011;47853;55.890;37.664;2022-11-20T02:13:09;12.85;;;8.05;;
61899;SDS011;47853;55.890;37.664;2022-11-20T02:15:35;14.55;;;8.35;;
61899;SDS011;47853;55.890;37.664;2022-11-20T02:18:00;14.88;;;8.57;;
61899;SDS011;47853;55.890;37.664;2022-11-20T02:20:26;14.52;;;8.73;;
61899;SDS011;47853;55.890;37.664;2022-11-20T02:22:56;17.42;;;8.50;;
61899;SDS011;47853;55.890;37.664;2022-11-20T02:25:24;16.08;;;9.50;;
61899;SDS011;47853;55.890;37.664;2022-11-20T02:27:52;15.93;;;9.25;;
61899;SDS011;47853;55.890;37.664;2022-11-20T02:30:18;15.65;;;9.15;;
61899;SDS011;47853;55.890;37.664;2022-11-20T02:32:43;12.68;;;7.80;;
61899;SDS011;47853;55.890;37.664;2022-11-20T02:35:35;16.75;;;9.48;;
61899;SDS011;47853;55.890;37.664;2022-11-20T02:37:55;15.07;;;8.95;;
61899;SDS011;47853;55.890;37.664;2022-11-20T02:40:23;15.48;;;9.50;;
61899;SDS011;47853;55.890;37.664;2022-11-20T02:42:52;15.77;;;9.45;;
61899;SDS011;47853;55.890;37.664;2022-11-20T02:45:21;16.17;;;9.63;;
61899;SDS011;47853;55.890;37.664;2022-11-20T02:47:46;16.77;;;8.88;;
61899;SDS011;47853;55.890;37.664;2022-11-20T02:50:12;14.10;;;8.30;;
61899;SDS011;47853;55.890;37.664;2022-11-20T02:52:37;15.70;;;8.50;;
61899;SDS011;47853;55.890;37.664;2022-11-20T02:55:03;16.17;;;8.95;;
61899;SDS011;47853;55.890;37.664;2022-11-20T02:57:28;15.88;;;8.20;;
61899;SDS011;47853;55.890;37.664;2022-11-20T02:59:54;11.70;;;8.02;;
61899;SDS011;47853;55.890;37.664;2022-11-20T03:02:19;11.73;;;8.60;;
61899;SDS011;47853;55.890;37.664;2022-11-20T03:04:44;15.90;;;8.77;;
61899;SDS011;47853;55.890;37.664;2022-11-20T03:07:10;14.05;;;8.45;;
61899;SDS011;47853;55.890;37.664;2022-11-20T03:09:35;15.73;;;9.10;;
61899;SDS011;47853;55.890;37.664;2022-11-20T03:12:00;14.75;;;8.63;;
61899;SDS011;47853;55.890;37.664;2022-11-20T03:14:26;13.32;;;8.20;;
61899;SDS011;47853;55.890;37.664;2022-11-20T03:16:51;19.02;;;9.35;;
61899;SDS011;47853;55.890;37.664;2022-11-20T03:19:16;11.40;;;6.95;;
61899;SDS011;47853;55.890;37.664;2022-11-20T03:21:42;11.50;;;7.80;;
61899;SDS011;47853;55.890;37.664;2022-11-20T03:24:07;11.95;;;7.35;;
61899;SDS011;47853;55.890;37.664;2022-11-20T03:26:32;13.50;;;7.90;;
61899;SDS011;47853;55.890;37.664;2022-11-20T03:28:59;12.95;;;7.53;;
61899;SDS011;47853;55.890;37.664;2022-11-20T03:31:30;13.07;;;8.38;;
61899;SDS011;47853;55.890;37.664;2022-11-20T03:34:00;13.05;;;8.07;;
61899;SDS011;47853;55.890;37.664;2022-11-20T03:36:26;12.50;;;8.18;;
61899;SDS011;47853;55.890;37.664;2022-11-20T03:38:53;12.15;;;7.28;;
61899;SDS011;47853;55.890;37.664;2022-11-20T03:41:28;12.55;;;7.38;;
61899;SDS011;47853;55.890;37.664;2022-11-20T03:43:59;15.27;;;7.93;;
61899;SDS011;47853;55.890;37.664;2022-11-20T03:46:26;13.52;;;7.43;;
61899;SDS011;47853;55.890;37.664;2022-11-20T03:48:52;10.95;;;6.20;;
61899;SDS011;47853;55.890;37.664;2022-11-20T03:51:21;12.07;;;7.20;;
61899;SDS011;47853;55.890;37.664;2022-11-20T03:53:48;12.70;;;7.55;;
61899;SDS011;47853;55.890;37.664;2022-11-20T03:56:15;12.45;;;7.80;;
61899;SDS011;47853;55.890;37.664;2022-11-20T03:58:42;15.85;;;8.43;;
61899;SDS011;47853;55.890;37.664;2022-11-20T04:01:09;11.30;;;7.68;;
61899;SDS011;47853;55.890;37.664;2022-11-20T04:03:35;11.85;;;7.65;;
61899;SDS011;47853;55.890;37.664;2022-11-20T04:06:05;13.20;;;8.38;;
61899;SDS011;47853;55.890;37.664;2022-11-20T04:08:33;15.18;;;8.57;;
61899;SDS011;47853;55.890;37.664;2022-11-20T04:11:08;13.30;;;7.30;;
61899;SDS011;47853;55.890;37.664;2022-11-20T04:13:36;11.18;;;7.82;;
61899;SDS011;47853;55.890;37.664;2022-11-20T04:16:03;11.63;;;8.30;;
61899;SDS011;47853;55.890;37.664;2022-11-20T04:18:29;12.32;;;8.35;;
61899;SDS011;47853;55.890;37.664;2022-11-20T04:20:56;14.15;;;7.78;;
61899;SDS011;47853;55.890;37.664;2022-11-20T04:23:22;13.77;;;8.55;;
61899;SDS011;47853;55.890;37.664;2022-11-20T04:25:47;14.23;;;8.30;;
61899;SDS011;47853;55.890;37.664;2022-11-20T04:28:12;14.57;;;8.85;;
61899;SDS011;47853;55.890;37.664;2022-11-20T04:30:38;14.00;;;8.38;;
61899;SDS011;47853;55.890;37.664;2022-11-20T04:33:03;13.43;;;9.13;;
61899;SDS011;47853;55.890;37.664;2022-11-20T04:35:28;17.40;;;9.57;;
61899;SDS011;47853;55.890;37.664;2022-11-20T04:37:54;14.65;;;8.27;;
61899;SDS011;47853;55.890;37.664;2022-11-20T04:40:19;14.32;;;8.68;;
61899;SDS011;47853;55.890;37.664;2022-11-20T04:42:44;14.20;;;8.65;;
61899;SDS011;47853;55.890;37.664;2022-11-20T04:45:10;15.05;;;8.57;;
61899;SDS011;47853;55.890;37.664;2022-11-20T04:47:35;12.95;;;8.38;;
61899;SDS011;47853;55.890;37.664;2022-11-20T04:50:00;14.18;;;8.70;;
61899;SDS011;47853;55.890;37.664;2022-11-20T04:52:26;14.40;;;8.23;;
61899;SDS011;47853;55.890;37.664;2022-11-20T04:54:52;15.05;;;9.30;;
61899;SDS011;47853;55.890;37.664;2022-11-20T04:57:17;15.65;;;8.05;;
61899;SDS011;47853;55.890;37.664;2022-11-20T04:59:42;13.35;;;8.70;;
61899;SDS011;47853;55.890;37.664;2022-11-20T05:02:08;12.43;;;8.43;;
61899;SDS011;47853;55.890;37.664;2022-11-20T05:04:33;13.65;;;8.02;;
61899;SDS011;47853;55.890;37.664;2022-11-20T05:06:58;14.43;;;8.82;;
61899;SDS011;47853;55.890;37.664;2022-11-20T05:09:24;15.90;;;9.38;;
61899;SDS011;47853;55.890;37.664;2022-11-20T05:11:49;14.55;;;9.25;;
61899;SDS011;47853;55.890;37.664;2022-11-20T05:14:14;11.95;;;7.63;;
61899;SDS011;47853;55.890;37.664;2022-11-20T05:16:40;12.55;;;8.93;;
61899;SDS011;47853;55.890;37.664;2022-11-20T05:19:05;15.23;;;8.68;;
61899;SDS011;47853;55.890;37.664;2022-11-20T05:21:30;16.00;;;9.52;;
61899;SDS011;47853;55.890;37.664;2022-11-20T05:23:56;12.63;;;7.97;;
61899;SDS011;47853;55.890;37.664;2022-11-20T05:26:21;12.77;;;8.77;;
61899;SDS011;47853;55.890;37.664;2022-11-20T05:28:47;12.23;;;8.10;;
61899;SDS011;47853;55.890;37.664;2022-11-20T05:31:19;12.55;;;7.60;;
61899;SDS011;47853;55.890;37.664;2022-11-20T05:33:46;14.40;;;8.68;;
61899;SDS011;47853;55.890;37.664;2022-11-20T05:36:12;12.85;;;7.88;;
61899;SDS011;47853;55.890;37.664;2022-11-20T05:38:38;13.27;;;8.80;;
61899;SDS011;47853;55.890;37.664;2022-11-20T05:43:31;14.13;;;8.50;;
61899;SDS011;47853;55.890;37.664;2022-11-20T05:45:57;12.32;;;8.80;;
61899;SDS011;47853;55.890;37.664;2022-11-20T05:48:22;14.25;;;9.00;;
61899;SDS011;47853;55.890;37.664;2022-11-20T05:50:48;10.48;;;7.47;;
61899;SDS011;47853;55.890;37.664;2022-11-20T05:53:13;14.77;;;9.23;;
61899;SDS011;47853;55.890;37.664;2022-11-20T05:55:38;13.95;;;8.50;;
61899;SDS011;47853;55.890;37.664;2022-11-20T05:58:04;13.07;;;8.60;;
61899;SDS011;47853;55.890;37.664;2022-11-20T06:00:29;11.07;;;7.75;;
61899;SDS011;47853;55.890;37.664;2022-11-20T06:02:55;12.55;;;8.38;;
61899;SDS011;47853;55.890;37.664;2022-11-20T06:05:20;12.13;;;8.23;;
61899;SDS011;47853;55.890;37.664;2022-11-20T06:07:46;15.45;;;10.38;;
61899;SDS011;47853;55.890;37.664;2022-11-20T06:10:12;10.98;;;7.35;;
61899;SDS011;47853;55.890;37.664;2022-11-20T06:12:37;14.13;;;8.68;;
61899;SDS011;47853;55.890;37.664;2022-11-20T06:15:03;10.85;;;7.85;;
61899;SDS011;47853;55.890;37.664;2022-11-20T06:17:29;16.88;;;9.52;;
61899;SDS011;47853;55.890;37.664;2022-11-20T06:19:54;15.60;;;9.45;;
61899;SDS011;47853;55.890;37.664;2022-11-20T06:22:20;13.27;;;8.43;;
61899;SDS011;47853;55.890;37.664;2022-11-20T06:24:45;13.77;;;9.40;;
61899;SDS011;47853;55.890;37.664;2022-11-20T06:27:10;15.35;;;8.52;;
61899;SDS011;47853;55.890;37.664;2022-11-20T06:29:36;15.80;;;9.65;;
61899;SDS011;47853;55.890;37.664;2022-11-20T06:32:01;15.70;;;9.50;;
61899;SDS011;47853;55.890;37.664;2022-11-20T06:34:26;13.25;;;9.32;;
61899;SDS011;47853;55.890;37.664;2022-11-20T06:36:52;16.25;;;8.65;;
61899;SDS011;47853;55.890;37.664;2022-11-20T06:39:17;12.73;;;7.60;;
61899;SDS011;47853;55.890;37.664;2022-11-20T06:41:42;14.40;;;8.70;;
61899;SDS011;47853;55.890;37.664;2022-11-20T06:44:08;13.07;;;7.57;;
61899;SDS011;47853;55.890;37.664;2022-11-20T06:46:33;14.65;;;8.93;;
61899;SDS011;47853;55.890;37.664;2022-11-20T06:48:58;14.25;;;9.77;;
61899;SDS011;47853;55.890;37.664;2022-11-20T06:51:24;13.77;;;8.48;;
61899;SDS011;47853;55.890;37.664;2022-11-20T06:53:49;14.48;;;9.18;;
61899;SDS011;47853;55.890;37.664;2022-11-20T06:56:14;14.63;;;9.82;;
61899;SDS011;47853;55.890;37.664;2022-11-20T06:58:40;13.93;;;9.93;;
61899;SDS011;47853;55.890;37.664;2022-11-20T07:01:09;11.68;;;8.82;;
61899;SDS011;47853;55.890;37.664;2022-11-20T07:03:36;17.50;;;9.85;;
61899;SDS011;47853;55.890;37.664;2022-11-20T07:06:02;11.32;;;7.65;;
61899;SDS011;47853;55.890;37.664;2022-11-20T07:08:28;13.77;;;10.00;;
61899;SDS011;47853;55.890;37.664;2022-11-20T07:11:00;14.50;;;9.07;;
61899;SDS011;47853;55.890;37.664;2022-11-20T07:13:28;15.02;;;9.48;;
61899;SDS011;47853;55.890;37.664;2022-11-20T07:15:54;14.55;;;9.52;;
61899;SDS011;47853;55.890;37.664;2022-11-20T07:18:20;16.13;;;10.00;;
61899;SDS011;47853;55.890;37.664;2022-11-20T07:20:45;16.92;;;11.27;;
61899;SDS011;47853;55.890;37.664;2022-11-20T07:23:10;16.42;;;10.35;;
61899;SDS011;47853;55.890;37.664;2022-11-20T07:25:36;14.48;;;9.77;;
61899;SDS011;47853;55.890;37.664;2022-11-20T07:28:01;18.65;;;10.55;;
61899;SDS011;47853;55.890;37.664;2022-11-20T07:30:27;15.60;;;10.77;;
61899;SDS011;47853;55.890;37.664;2022-11-20T07:32:53;29.98;;;19.95;;
61899;SDS011;47853;55.890;37.664;2022-11-20T07:35:20;19.23;;;12.63;;
61899;SDS011;47853;55.890;37.664;2022-11-20T07:37:46;16.77;;;11.18;;
61899;SDS011;47853;55.890;37.664;2022-11-20T07:40:12;16.33;;;9.73;;
61899;SDS011;47853;55.890;37.664;2022-11-20T07:42:38;14.35;;;8.98;;
61899;SDS011;47853;55.890;37.664;2022-11-20T07:45:17;14.32;;;10.13;;
61899;SDS011;47853;55.890;37.664;2022-11-20T07:47:43;15.23;;;10.15;;
61899;SDS011;47853;55.890;37.664;2022-11-20T07:50:08;15.43;;;9.45;;
61899;SDS011;47853;55.890;37.664;2022-11-20T07:52:37;16.48;;;9.48;;
61899;SDS011;47853;55.890;37.664;2022-11-20T07:55:02;14.32;;;9.55;;
61899;SDS011;47853;55.890;37.664;2022-11-20T07:57:28;21.42;;;12.63;;
61899;SDS011;47853;55.890;37.664;2022-11-20T07:59:53;16.67;;;11.13;;
61899;SDS011;47853;55.890;37.664;2022-11-20T08:02:19;16.92;;;11.27;;
61899;SDS011;47853;55.890;37.664;2022-11-20T08:04:44;17.35;;;9.98;;
61899;SDS011;47853;55.890;37.664;2022-11-20T08:07:09;17.92;;;10.23;;
61899;SDS011;47853;55.890;37.664;2022-11-20T08:09:35;13.50;;;10.02;;
61899;SDS011;47853;55.890;37.664;2022-11-20T08:12:00;16.50;;;9.57;;
61899;SDS011;47853;55.890;37.664;2022-11-20T08:14:25;17.40;;;10.73;;
61899;SDS011;47853;55.890;37.664;2022-11-20T08:16:51;23.27;;;14.52;;
61899;SDS011;47853;55.890;37.664;2022-11-20T08:19:17;17.38;;;11.43;;
61899;SDS011;47853;55.890;37.664;2022-11-20T08:21:43;15.48;;;9.23;;
61899;SDS011;47853;55.890;37.664;2022-11-20T08:24:09;16.15;;;10.15;;
61899;SDS011;47853;55.890;37.664;2022-11-20T08:26:38;14.63;;;10.07;;
61899;SDS011;47853;55.890;37.664;2022-11-20T08:29:04;12.63;;;8.63;;
61899;SDS011;47853;55.890;37.664;2022-11-20T08:31:30;15.85;;;10.63;;
61899;SDS011;47853;55.890;37.664;2022-11-20T08:33:56;15.25;;;9.55;;
61899;SDS011;47853;55.890;37.664;2022-11-20T08:36:22;15.27;;;10.00;;
61899;SDS011;47853;55.890;37.664;2022-11-20T08:38:51;29.50;;;18.25;;
61899;SDS011;47853;55.890;37.664;2022-11-20T08:41:18;17.63;;;11.15;;
61899;SDS011;47853;55.890;37.664;2022-11-20T08:43:44;23.77;;;13.02;;
61899;SDS011;47853;55.890;37.664;2022-11-20T08:46:09;17.52;;;10.70;;
61899;SDS011;47853;55.890;37.664;2022-11-20T08:48:35;16.60;;;10.10;;
61899;SDS011;47853;55.890;37.664;2022-11-20T08:51:01;17.70;;;10.45;;
61899;SDS011;47853;55.890;37.664;2022-11-20T08:53:26;16.73;;;11.27;;
61899;SDS011;47853;55.890;37.664;2022-11-20T08:55:52;16.50;;;10.15;;
61899;SDS011;47853;55.890;37.664;2022-11-20T08:58:17;14.32;;;9.65;;
61899;SDS011;47853;55.890;37.664;2022-11-20T09:00:43;16.60;;;9.50;;
61899;SDS011;47853;55.890;37.664;2022-11-20T09:03:08;13.38;;;9.50;;
61899;SDS011;47853;55.890;37.664;2022-11-20T09:05:33;18.33;;;10.52;;
61899;SDS011;47853;55.890;37.664;2022-11-20T09:07:59;16.60;;;10.85;;
61899;SDS011;47853;55.890;37.664;2022-11-20T09:10:25;14.95;;;9.38;;
61899;SDS011;47853;55.890;37.664;2022-11-20T09:12:51;18.65;;;11.27;;
61899;SDS011;47853;55.890;37.664;2022-11-20T09:15:17;17.00;;;10.00;;
61899;SDS011;47853;55.890;37.664;2022-11-20T09:17:56;15.25;;;9.68;;
61899;SDS011;47853;55.890;37.664;2022-11-20T09:20:27;17.95;;;10.68;;
61899;SDS011;47853;55.890;37.664;2022-11-20T09:22:53;17.92;;;10.57;;
61899;SDS011;47853;55.890;37.664;2022-11-20T09:25:19;18.25;;;12.90;;
61899;SDS011;47853;55.890;37.664;2022-11-20T09:27:44;15.07;;;10.20;;
61899;SDS011;47853;55.890;37.664;2022-11-20T09:30:13;22.58;;;10.40;;
61899;SDS011;47853;55.890;37.664;2022-11-20T09:32:39;16.38;;;10.00;;
61899;SDS011;47853;55.890;37.664;2022-11-20T09:35:11;17.50;;;10.27;;
61899;SDS011;47853;55.890;37.664;2022-11-20T09:37:37;16.02;;;10.05;;
61899;SDS011;47853;55.890;37.664;2022-11-20T09:40:02;16.05;;;11.00;;
61899;SDS011;47853;55.890;37.664;2022-11-20T09:42:40;16.33;;;9.73;;
61899;SDS011;47853;55.890;37.664;2022-11-20T09:45:15;14.73;;;9.50;;
61899;SDS011;47853;55.890;37.664;2022-11-20T09:50:32;16.90;;;11.18;;
61899;SDS011;47853;55.890;37.664;2022-11-20T09:55:55;14.50;;;9.48;;
61899;SDS011;47853;55.890;37.664;2022-11-20T09:58:27;14.45;;;10.00;;
61899;SDS011;47853;55.890;37.664;2022-11-20T10:00:56;16.95;;;9.68;;
61899;SDS011;47853;55.890;37.664;2022-11-20T10:09:29;15.73;;;11.35;;
61899;SDS011;47853;55.890;37.664;2022-11-20T10:12:09;17.30;;;10.50;;
61899;SDS011;47853;55.890;37.664;2022-11-20T10:14:57;16.75;;;10.60;;
61899;SDS011;47853;55.890;37.664;2022-11-20T10:17:33;20.75;;;11.88;;
61899;SDS011;47853;55.890;37.664;2022-11-20T10:20:38;21.33;;;11.10;;
61899;SDS011;47853;55.890;37.664;2022-11-20T10:31:44;24.98;;;11.93;;
61899;SDS011;47853;55.890;37.664;2022-11-20T10:37:00;25.70;;;12.63;;
61899;SDS011;47853;55.890;37.664;2022-11-20T10:48:33;27.48;;;13.77;;
61899;SDS011;47853;55.890;37.664;2022-11-20T10:56:47;38.40;;;15.68;;
61899;SDS011;47853;55.890;37.664;2022-11-20T11:04:47;37.22;;;12.82;;
61899;SDS011;47853;55.890;37.664;2022-11-20T11:07:17;27.27;;;12.90;;
61899;SDS011;47853;55.890;37.664;2022-11-20T11:09:54;39.05;;;15.23;;
61899;SDS011;47853;55.890;37.664;2022-11-20T11:12:21;35.17;;;14.65;;
61899;SDS011;47853;55.890;37.664;2022-11-20T11:14:50;36.30;;;14.93;;
61899;SDS011;47853;55.890;37.664;2022-11-20T11:17:22;37.83;;;17.33;;
61899;SDS011;47853;55.890;37.664;2022-11-20T11:22:44;34.90;;;15.80;;
61899;SDS011;47853;55.890;37.664;2022-11-20T11:27:49;34.40;;;16.08;;
61899;SDS011;47853;55.890;37.664;2022-11-20T11:30:17;37.72;;;17.05;;
61899;SDS011;47853;55.890;37.664;2022-11-20T11:32:46;40.25;;;17.85;;
61899;SDS011;47853;55.890;37.664;2022-11-20T11:35:27;34.47;;;15.80;;
61899;SDS011;47853;55.890;37.664;2022-11-20T11:38:13;37.80;;;16.60;;
61899;SDS011;47853;55.890;37.664;2022-11-20T11:40:41;44.85;;;19.00;;
61899;SDS011;47853;55.890;37.664;2022-11-20T11:43:15;33.50;;;17.33;;
61899;SDS011;47853;55.890;37.664;2022-11-20T11:45:50;49.38;;;24.85;;
61899;SDS011;47853;55.890;37.664;2022-11-20T11:50:48;46.13;;;19.67;;
61899;SDS011;47853;55.890;37.664;2022-11-20T11:53:24;38.42;;;17.55;;
61899;SDS011;47853;55.890;37.664;2022-11-20T11:56:13;36.60;;;19.63;;
61899;SDS011;47853;55.890;37.664;2022-11-20T11:58:42;34.40;;;18.35;;
61899;SDS011;47853;55.890;37.664;2022-11-20T12:03:50;50.40;;;18.70;;
61899;SDS011;47853;55.890;37.664;2022-11-20T12:06:24;36.47;;;18.27;;
61899;SDS011;47853;55.890;37.664;2022-11-20T12:09:04;46.92;;;23.13;;
61899;SDS011;47853;55.890;37.664;2022-11-20T12:14:40;47.08;;;22.23;;
61899;SDS011;47853;55.890;37.664;2022-11-20T12:17:09;36.63;;;20.02;;
61899;SDS011;47853;55.890;37.664;2022-11-20T12:19:36;37.65;;;18.90;;
61899;SDS011;47853;55.890;37.664;2022-11-20T12:31:03;28.40;;;15.30;;
61899;SDS011;47853;55.890;37.664;2022-11-20T12:36:41;27.73;;;16.10;;
61899;SDS011;47853;55.890;37.664;2022-11-20T12:39:27;31.42;;;16.60;;
61899;SDS011;47853;55.890;37.664;2022-11-20T12:45:10;30.85;;;16.33;;
61899;SDS011;47853;55.890;37.664;2022-11-20T12:58:48;29.98;;;16.20;;
61899;SDS011;47853;55.890;37.664;2022-11-20T13:05:28;31.10;;;15.55;;
61899;SDS011;47853;55.890;37.664;2022-11-20T13:07:33;30.02;;;15.55;;
61899;SDS011;47853;55.890;37.664;2022-11-20T13:10:00;34.10;;;16.55;;
61899;SDS011;47853;55.890;37.664;2022-11-20T13:15:02;33.42;;;16.13;;
61899;SDS011;47853;55.890;37.664;2022-11-20T13:17:46;23.90;;;14.85;;
61899;SDS011;47853;55.890;37.664;2022-11-20T13:20:17;28.88;;;16.27;;
61899;SDS011;47853;55.890;37.664;2022-11-20T13:22:45;29.70;;;16.00;;
61899;SDS011;47853;55.890;37.664;2022-11-20T13:27:54;30.95;;;16.02;;
61899;SDS011;47853;55.890;37.664;2022-11-20T13:30:21;33.83;;;16.77;;
61899;SDS011;47853;55.890;37.664;2022-11-20T13:35:23;36.75;;;18.60;;
61899;SDS011;47853;55.890;37.664;2022-11-20T13:38:10;36.05;;;19.58;;
61899;SDS011;47853;55.890;37.664;2022-11-20T13:43:37;34.30;;;17.73;;
61899;SDS011;47853;55.890;37.664;2022-11-20T13:46:06;29.48;;;15.85;;
61899;SDS011;47853;55.890;37.664;2022-11-20T13:48:40;31.23;;;16.95;;
61899;SDS011;47853;55.890;37.664;2022-11-20T14:02:40;34.67;;;16.63;;
61899;SDS011;47853;55.890;37.664;2022-11-20T14:05:17;35.65;;;17.25;;
61899;SDS011;47853;55.890;37.664;2022-11-20T14:07:47;31.92;;;15.55;;
61899;SDS011;47853;55.890;37.664;2022-11-20T14:13:15;30.83;;;17.20;;
61899;SDS011;47853;55.890;37.664;2022-11-20T14:15:43;32.55;;;17.50;;
61899;SDS011;47853;55.890;37.664;2022-11-20T14:18:18;30.00;;;15.18;;
61899;SDS011;47853;55.890;37.664;2022-11-20T14:20:44;27.58;;;16.45;;
61899;SDS011;47853;55.890;37.664;2022-11-20T14:23:11;32.38;;;16.20;;
61899;SDS011;47853;55.890;37.664;2022-11-20T14:25:36;30.23;;;16.15;;
61899;SDS011;47853;55.890;37.664;2022-11-20T14:28:09;31.80;;;15.57;;
61899;SDS011;47853;55.890;37.664;2022-11-20T14:30:47;26.95;;;15.20;;
61899;SDS011;47853;55.890;37.664;2022-11-20T14:33:13;27.10;;;14.98;;
61899;SDS011;47853;55.890;37.664;2022-11-20T14:35:42;23.95;;;14.40;;
61899;SDS011;47853;55.890;37.664;2022-11-20T14:38:11;26.70;;;16.02;;
61899;SDS011;47853;55.890;37.664;2022-11-20T14:40:39;27.73;;;15.13;;
61899;SDS011;47853;55.890;37.664;2022-11-20T14:43:16;26.58;;;14.65;;
61899;SDS011;47853;55.890;37.664;2022-11-20T14:45:56;40.05;;;16.65;;
61899;SDS011;47853;55.890;37.664;2022-11-20T14:48:29;32.38;;;16.98;;
61899;SDS011;47853;55.890;37.664;2022-11-20T14:50:57;30.23;;;17.25;;
61899;SDS011;47853;55.890;37.664;2022-11-20T14:53:23;38.65;;;19.75;;
61899;SDS011;47853;55.890;37.664;2022-11-20T14:55:56;35.22;;;17.73;;
61899;SDS011;47853;55.890;37.664;2022-11-20T15:00:56;27.60;;;15.93;;
61899;SDS011;47853;55.890;37.664;2022-11-20T15:03:37;28.80;;;15.18;;
61899;SDS011;47853;55.890;37.664;2022-11-20T15:06:04;33.50;;;16.33;;
61899;SDS011;47853;55.890;37.664;2022-11-20T15:08:35;32.65;;;16.33;;
61899;SDS011;47853;55.890;37.664;2022-11-20T15:11:01;29.80;;;15.90;;
61899;SDS011;47853;55.890;37.664;2022-11-20T15:13:31;25.15;;;14.27;;
61899;SDS011;47853;55.890;37.664;2022-11-20T15:16:04;29.58;;;14.07;;
61899;SDS011;47853;55.890;37.664;2022-11-20T15:18:40;22.50;;;13.57;;
61899;SDS011;47853;55.890;37.664;2022-11-20T15:21:09;28.58;;;14.75;;
61899;SDS011;47853;55.890;37.664;2022-11-20T15:23:59;28.27;;;13.65;;
61899;SDS011;47853;55.890;37.664;2022-11-20T15:26:25;25.00;;;14.88;;
61899;SDS011;47853;55.890;37.664;2022-11-20T15:28:52;24.65;;;13.57;;
61899;SDS011;47853;55.890;37.664;2022-11-20T15:31:19;21.05;;;12.13;;
61899;SDS011;47853;55.890;37.664;2022-11-20T15:33:47;31.60;;;15.40;;
61899;SDS011;47853;55.890;37.664;2022-11-20T15:36:13;23.17;;;13.60;;
61899;SDS011;47853;55.890;37.664;2022-11-20T15:38:38;26.55;;;13.77;;
61899;SDS011;47853;55.890;37.664;2022-11-20T15:41:04;23.30;;;12.25;;
61899;SDS011;47853;55.890;37.664;2022-11-20T15:43:30;22.50;;;13.68;;
61899;SDS011;47853;55.890;37.664;2022-11-20T15:46:22;25.40;;;13.73;;
61899;SDS011;47853;55.890;37.664;2022-11-20T15:48:52;25.48;;;12.60;;
61899;SDS011;47853;55.890;37.664;2022-11-20T15:51:29;31.38;;;15.05;;
61899;SDS011;47853;55.890;37.664;2022-11-20T15:53:57;23.58;;;13.70;;
61899;SDS011;47853;55.890;37.664;2022-11-20T15:56:23;27.55;;;14.85;;
61899;SDS011;47853;55.890;37.664;2022-11-20T15:58:49;31.73;;;16.88;;
61899;SDS011;47853;55.890;37.664;2022-11-20T16:01:15;30.08;;;15.23;;
61899;SDS011;47853;55.890;37.664;2022-11-20T16:03:45;29.40;;;15.32;;
61899;SDS011;47853;55.890;37.664;2022-11-20T16:06:11;25.85;;;13.98;;
61899;SDS011;47853;55.890;37.664;2022-11-20T16:08:36;28.15;;;14.70;;
61899;SDS011;47853;55.890;37.664;2022-11-20T16:11:02;24.02;;;13.68;;
61899;SDS011;47853;55.890;37.664;2022-11-20T16:13:28;25.20;;;13.82;;
61899;SDS011;47853;55.890;37.664;2022-11-20T16:15:56;28.58;;;15.43;;
61899;SDS011;47853;55.890;37.664;2022-11-20T16:18:32;17.63;;;11.10;;
61899;SDS011;47853;55.890;37.664;2022-11-20T16:20:57;18.98;;;11.73;;
61899;SDS011;47853;55.890;37.664;2022-11-20T16:23:23;18.67;;;10.23;;
61899;SDS011;47853;55.890;37.664;2022-11-20T16:25:49;17.42;;;10.00;;
61899;SDS011;47853;55.890;37.664;2022-11-20T16:28:15;15.77;;;9.50;;